• Join FlightAware (Why Join?)
  • Login
  • US Flag 
09:58AM EDT


 

Airport Tracker/Info


-or-


 

Live Flight TrackerFlight Track Log ✈ AWE3418 ✈ 10-Apr-2013 ✈ KCMH - KPHL

Flight Track Log - Related Links

Times and Time Zones

All times are in EDT time to prevent confusion due to time zone crossing. See the AWE3418 flight status page for this flight to view local times or setup timezone preferences in your user account.

Time Position Orientation Groundspeed Altitude Reporting Facility
EDT Latitude Longitude Course Direction KTS MPH feet Rate Location/Type
05:24PM 40.0089 -82.9853 81° East 176 203 3,600  Level Indianapolis Center
05:26PM 40.0478 -83.0406 313° West 238 274 6,700 2,820 Climbing Indianapolis Center
05:27PM 40.0828 -82.9483 64° Northeast 316 364 9,500 2,400 Climbing Indianapolis Center
05:28PM 40.0925 -82.8250 84° East 337 388 11,700 2,220 Climbing Indianapolis Center
05:29PM 40.1044 -82.6858 84° East 376 433 14,100 2,460 Climbing Indianapolis Center
05:30PM 40.1089 -81.9456 81° East  Level FlightAware Approximate
05:30PM 40.1161 -82.5417 84° East 392 451 16,800  Level Indianapolis Center
05:31PM 40.1275 -82.3931 84° East 404 465 19,200 2,340 Climbing Indianapolis Center
05:32PM 40.1422 -82.2150 84° East 418 481 21,700 2,340 Climbing Indianapolis Center
05:33PM 40.1544 -82.0583 84° East 428 493 24,100 1,980 Climbing Indianapolis Center
05:34PM 40.1669 -81.9008 84° East 430 495 25,800 900 Climbing Indianapolis Center
05:35PM 40.1789 -81.7406 84° East 437 503 26,000 60 Climbing Indianapolis Center
05:36PM 40.1897 -81.5808 85° East 438 504 26,000  Level Indianapolis Center
05:36PM 40.1967 -81.5153 82° East 430 495 26,000  Level Cleveland Center
05:37PM 40.2061 -81.3606 85° East 430 495 26,000  Level Cleveland Center
05:38PM 40.2175 -81.2058 84° East 430 495 26,000  Level Cleveland Center
05:39PM 40.2289 -81.0481 85° East 424 488 26,000  Level Cleveland Center
05:40PM 40.2419 -80.8958 84° East 424 488 26,000  Level Cleveland Center
05:41PM 40.2233 -80.7461 99° East 424 488 26,000  Level Cleveland Center
05:42PM 40.1525 -80.6183 126° Southeast 407 468 26,000  Level Cleveland Center
05:43PM 40.0733 -80.4772 126° Southeast 424 488 26,000  Level Cleveland Center
05:44PM 40.0064 -80.3500 124° Southeast 430 495 26,000  Level Cleveland Center
05:45PM 39.9372 -80.2203 125° Southeast 436 502 26,000  Level Cleveland Center
05:46PM 39.8744 -80.0936 123° Southeast 436 502 26,000  Level Cleveland Center
05:47PM 39.8611 -79.9422 96° East 407 468 26,000  Level Cleveland Center
05:48PM 39.9122 -79.8064 64° Northeast 381 438 26,000  Level Cleveland Center
05:49PM 39.9697 -79.6728 61° Northeast 393 452 26,000  Level Cleveland Center
05:50PM 40.0247 -79.5367 62° Northeast 404 465 26,000  Level Cleveland Center
05:51PM 40.0839 -79.4028 60° Northeast 415 478 26,000  Level Cleveland Center
05:52PM 40.1389 -79.2661 62° Northeast 415 478 26,000  Level Cleveland Center
05:53PM 40.1914 -79.1317 63° Northeast 415 478 26,000  Level Cleveland Center
05:54PM 40.2081 -78.9736 82° East 415 478 26,000  Level Cleveland Center
05:55PM 40.2161 -78.8186 86° East 421 484 26,000  Level Cleveland Center
05:56PM 40.2239 -78.6578 86° East 427 491 26,000  Level Cleveland Center
05:59PM 40.2436 -78.2825 86° East 442 509 26,000 -300 Level New York Center
06:00PM 40.2536 -78.1231 85° East 442 509 25,000 -540 Descending New York Center
06:01PM 40.2589 -77.9656 87° East 442 509 25,000  Level New York Center
06:02PM 40.2519 -77.8072 93° East 442 509 25,000 -660 Level New York Center
06:03PM 40.2361 -77.6478 97° East 442 509 23,700 -1,380 Descending New York Center
06:04PM 40.2264 -77.4917 95° East 437 503 22,300 -1,380 Descending New York Center
06:05PM 40.2139 -77.3439 96° East 426 490 21,000 -840 Descending New York Center
06:06PM 40.2025 -77.2122 96° East 410 472 20,700 -900 Descending New York Center
06:07PM 40.1875 -77.0639 97° East 410 472 19,200 -1,620 Descending New York Center
06:08PM 40.1786 -76.9164 94° East 410 472 17,600 -1,740 Descending New York Center
06:09PM 40.1661 -76.7550 96° East 410 472 15,900 -1,560 Descending New York Center
06:10PM 40.1542 -76.6156 96° East 404 465 14,500 -1,440 Descending New York Center
06:11PM 40.1425 -76.4733 96° East 399 459 13,100 -1,380 Descending New York Center
06:11PM 40.1339 -76.3667 96° East 374 430 12,100 -1,140 Descending FAA TRACON SMA TRACON (SMA)
06:12PM 40.1350 -76.3261 88° East 370 426 11,800 -900 Descending FAA TRACON SMA TRACON (SMA)
06:12PM 40.1281 -76.2850 102° East 368 423 11,500 -1,080 Descending FAA TRACON SMA TRACON (SMA)
06:12PM 40.1233 -76.2344 97° East 363 418 11,100 -1,080 Descending FAA TRACON SMA TRACON (SMA)
06:13PM 40.1211 -76.1978 95° East 357 411 10,800 -900 Descending FAA TRACON SMA TRACON (SMA)
06:13PM 40.1169 -76.1581 98° East 343 395 10,500 -1,080 Descending FAA TRACON SMA TRACON (SMA)
06:13PM 40.1144 -76.1122 94° East 334 384 10,100 -1,080 Descending FAA TRACON SMA TRACON (SMA)
06:14PM 40.1108 -76.0803 98° East 328 377 9,800 -900 Descending FAA TRACON SMA TRACON (SMA)
06:14PM 40.1067 -76.0408 98° East 324 373 9,500 -900 Descending FAA TRACON SMA TRACON (SMA)
06:14PM 40.1031 -75.9961 96° East 324 373 9,200 -900 Descending FAA TRACON SMA TRACON (SMA)
06:15PM 40.0997 -75.9619 97° East 322 371 8,900 -780 Descending FAA TRACON SMA TRACON (SMA)
06:15PM 40.0961 -75.9261 97° East 320 368 8,700 -780 Descending FAA TRACON SMA TRACON (SMA)
06:15PM 40.0942 -75.8897 94° East 319 367 8,400 -1,080 Descending FAA TRACON SMA TRACON (SMA)
06:16PM 40.0900 -75.8483 97° East 317 365 8,000 -600 Descending FAA TRACON SMA TRACON (SMA)
06:16PM 40.0875 -75.8119 95° East 313 360 8,000  Level FAA TRACON SMA TRACON (SMA)
06:16PM 40.0844 -75.7775 97° East 310 357 8,000  Level FAA TRACON SMA TRACON (SMA)
06:17PM 40.0822 -75.7356 94° East 311 358 8,000  Level FAA TRACON SMA TRACON (SMA)
06:17PM 40.0800 -75.6992 95° East 312 359 8,000 -180 Level FAA TRACON SMA TRACON (SMA)
06:17PM 40.0781 -75.6642 94° East 314 361 7,900 -600 Descending FAA TRACON SMA TRACON (SMA)
06:18PM 40.0767 -75.6231 93° East 313 360 7,600 -900 Descending FAA TRACON SMA TRACON (SMA)
06:18PM 40.0744 -75.5861 94° East 311 358 7,300 -900 Descending FAA TRACON SMA TRACON (SMA)
06:18PM 40.0725 -75.5519 94° East 308 354 7,000 -1,080 Descending FAA TRACON SMA TRACON (SMA)
06:19PM 40.0703 -75.5100 94° East 306 352 6,600 -1,080 Descending FAA TRACON SMA TRACON (SMA)
06:19PM 40.0692 -75.4758 92° East 303 349 6,300 -780 Descending FAA TRACON SMA TRACON (SMA)
06:19PM 40.0675 -75.4419 94° East 303 349 6,100 -480 Descending FAA TRACON SMA TRACON (SMA)
06:20PM 40.0658 -75.4025 93° East 301 346 6,000 -180 Descending FAA TRACON SMA TRACON (SMA)
06:20PM 40.0636 -75.3667 95° East 300 345 6,000  Level FAA TRACON SMA TRACON (SMA)
06:20PM 40.0617 -75.3356 95° East 300 345 6,000  Level FAA TRACON SMA TRACON (SMA)
06:21PM 40.0597 -75.2947 94° East 297 342 6,000  Level FAA TRACON SMA TRACON (SMA)
06:21PM 40.0558 -75.2597 98° East 289 333 6,000 -180 Level FAA TRACON SMA TRACON (SMA)
06:21PM 40.0494 -75.2303 106° East 268 308 5,900 -900 Descending FAA TRACON SMA TRACON (SMA)
06:22PM 40.0431 -75.1972 104° East 270 311 5,400 -1,380 Descending FAA TRACON SMA TRACON (SMA)
06:22PM 40.0361 -75.1628 105° East 292 336 5,000 -1,200 Descending FAA TRACON SMA TRACON (SMA)
06:22PM 40.0294 -75.1331 106° East 289 333 4,600 -1,200 Descending FAA TRACON SMA TRACON (SMA)
06:23PM 40.0217 -75.0953 105° East 286 329 4,200 -1,200 Descending FAA TRACON SMA TRACON (SMA)
06:23PM 40.0133 -75.0650 110° East 275 316 3,800 -900 Descending FAA TRACON SMA TRACON (SMA)
06:23PM 39.9953 -75.0481 144° Southeast 256 295 3,600 -600 Descending FAA TRACON SMA TRACON (SMA)
06:24PM 39.9758 -75.0397 162° South 239 275 3,400 -780 Descending FAA TRACON SMA TRACON (SMA)
06:24PM 39.9522 -75.0303 163° South 219 252 3,100 -600 Descending FAA TRACON SMA TRACON (SMA)
06:24PM 39.9356 -75.0239 164° South 220 253 3,000 -300 Descending FAA TRACON SMA TRACON (SMA)
06:25PM 39.9211 -75.0294 196° South 170 196 2,900 -480 Descending FAA TRACON SMA TRACON (SMA)
06:25PM 39.9139 -75.0486 244° Southwest 150 173 2,700 -600 Descending FAA TRACON SMA TRACON (SMA)
06:25PM 39.9092 -75.0647 249° West 161 185 2,500 -600 Descending FAA TRACON SMA TRACON (SMA)
06:26PM 39.9044 -75.0811 249° West 152 175 2,300 -900 Descending FAA TRACON SMA TRACON (SMA)
06:26PM 39.8986 -75.1014 249° West 154 177 1,900 -1,080 Descending FAA TRACON SMA TRACON (SMA)
06:26PM 39.8956 -75.1172 256° West 160 184 1,600 -780 Descending FAA TRACON SMA TRACON (SMA)
06:27PM 39.8928 -75.1347 258° West 155 178 1,400 -780 Descending FAA TRACON SMA TRACON (SMA)
06:27PM 39.8886 -75.1567 256° West 159 183 1,100 -900 Descending FAA TRACON SMA TRACON (SMA)
06:27PM 39.8850 -75.1725 253° West 148 170 800 -780 Descending FAA TRACON SMA TRACON (SMA)
06:28PM 39.8825 -75.1861 257° West 131 151 600 -600 Descending FAA TRACON SMA TRACON (SMA)